Time;durP1;ratioP1;P1;durP2;ratioP2;P2;SDS_P1;SDS_P2;PMS_P1;PMS_P2;Temp;Humidity;BMP_temperature;BMP_pressure;BME280_temperature;BME280_humidity;BME280_pressure;Samples;Min_cycle;Max_cycle;Signal;HPM_P1;HPM_P2
2021/04/06 00:00:26;;;;;;;8.85;3.08;;;;;;;3.16;100.00;101509.34;6162188;23;20005;-79
2021/04/06 00:02:56;;;;;;;29.98;4.30;;;;;;;3.27;100.00;101518.03;6135630;23;20005;-78
2021/04/06 00:05:22;;;;;;;13.13;2.45;;;;;;;3.27;100.00;101506.72;6162024;23;20666;-79
2021/04/06 00:07:50;;;;;;;21.75;3.55;;;;;;;3.31;100.00;101516.25;6135244;23;20032;-79
2021/04/06 00:10:22;;;;;;;12.77;2.88;;;;;;;3.26;100.00;101518.03;6160859;23;20009;-79
2021/04/06 00:12:52;;;;;;;27.15;4.13;;;;;;;3.24;100.00;101518.03;6159910;23;20005;-79
2021/04/06 00:15:19;;;;;;;24.65;4.38;;;;;;;3.14;100.00;101528.53;6134970;23;20013;-79
2021/04/06 00:17:46;;;;;;;7.57;2.10;;;;;;;3.17;100.00;101515.47;6161984;23;20021;-79
2021/04/06 00:20:14;;;;;;;24.25;3.47;;;;;;;3.23;100.00;101518.06;6161952;23;20056;-79
2021/04/06 00:22:40;;;;;;;17.55;3.30;;;;;;;3.15;100.00;101522.41;6159271;23;20332;-78
2021/04/06 00:25:09;;;;;;;27.92;3.45;;;;;;;3.17;100.00;101532.00;6135358;23;20008;-78
2021/04/06 00:27:41;;;;;;;23.48;4.45;;;;;;;2.94;100.00;101539.03;6135112;23;20002;-78
2021/04/06 00:30:09;;;;;;;19.70;2.97;;;;;;;2.50;100.00;101546.00;6134167;23;20005;-78
2021/04/06 00:32:36;;;;;;;23.10;5.60;;;;;;;2.31;100.00;101554.72;6158992;23;20036;-78
2021/04/06 00:35:04;;;;;;;19.33;3.72;;;;;;;2.09;100.00;101543.38;6160027;23;20009;-78
2021/04/06 00:37:32;;;;;;;23.67;4.72;;;;;;;2.07;100.00;101527.72;6159424;23;20005;-78
2021/04/06 00:40:07;;;;;;;28.52;5.20;;;;;;;2.01;100.00;101532.94;6159522;23;20441;-78
2021/04/06 00:42:34;;;;;;;27.70;3.83;;;;;;;2.02;100.00;101537.28;6159042;23;20033;-78
2021/04/06 00:45:07;;;;;;;28.88;6.70;;;;;;;1.91;100.00;101539.00;6158023;23;20005;-77
2021/04/06 00:47:33;;;;;;;20.90;3.92;;;;;;;1.97;100.00;101530.34;6159809;23;20010;-78
2021/04/06 00:50:10;;;;;;;22.25;4.38;;;;;;;1.85;100.00;101535.50;6159212;23;20331;-78
2021/04/06 00:52:45;;;;;;;18.65;3.97;;;;;;;1.87;100.00;101533.78;6158238;23;20009;-78
2021/04/06 00:55:16;;;;;;;24.77;4.18;;;;;;;1.83;100.00;101537.25;6158421;23;20005;-77
2021/04/06 00:57:43;;;;;;;20.58;4.18;;;;;;;1.90;100.00;101531.16;6158703;23;20001;-77
2021/04/06 01:00:20;;;;;;;23.13;3.28;;;;;;;2.01;100.00;101539.91;6133395;23;20005;-78
2021/04/06 01:03:01;;;;;;;21.50;2.58;;;;;;;2.02;100.00;101546.84;6133080;23;20001;-78
2021/04/06 01:05:31;;;;;;;35.35;5.18;;;;;;;2.09;100.00;101545.97;6159106;23;20012;-79
2021/04/06 01:07:57;;;;;;;27.02;3.65;;;;;;;2.08;100.00;101539.91;6162049;23;20006;-77
2021/04/06 01:10:25;;;;;;;24.02;3.05;;;;;;;2.06;100.00;101540.78;6132369;23;20013;-78
2021/04/06 01:12:51;;;;;;;27.67;4.20;;;;;;;2.05;100.00;101552.91;6160017;23;20005;-79
2021/04/06 01:15:18;;;;;;;26.27;3.60;;;;;;;2.10;100.00;101542.50;6133107;23;20014;-77
2021/04/06 01:17:43;;;;;;;15.95;2.90;;;;;;;2.19;100.00;101554.69;6156478;23;20026;-77
2021/04/06 01:20:13;;;;;;;21.27;2.80;;;;;;;2.03;100.00;101551.19;6155211;23;20013;-77
2021/04/06 01:22:40;;;;;;;22.38;4.32;;;;;;;1.91;100.00;101558.97;6158551;23;20002;-78
2021/04/06 01:25:06;;;;;;;10.48;2.13;;;;;;;1.71;100.00;101551.13;6158765;23;20077;-78
2021/04/06 01:27:31;;;;;;;19.33;2.83;;;;;;;1.61;100.00;101538.91;6157834;23;20013;-78
2021/04/06 01:29:57;;;;;;;28.13;3.92;;;;;;;1.62;100.00;101538.91;6158821;23;20029;-78
2021/04/06 01:32:28;;;;;;;14.45;4.72;;;;;;;1.59;100.00;101538.03;6132316;23;20040;-78
2021/04/06 01:34:54;;;;;;;29.83;3.53;;;;;;;1.64;100.00;101528.50;6158935;23;20016;-78
2021/04/06 01:37:25;;;;;;;29.23;4.85;;;;;;;1.50;100.00;101526.69;6158132;23;20008;-78
2021/04/06 01:39:54;;;;;;;21.30;4.22;;;;;;;1.58;100.00;101518.94;6158006;23;20013;-78
2021/04/06 01:42:23;;;;;;;24.02;4.60;;;;;;;1.50;100.00;101521.50;6130836;23;20006;-78
2021/04/06 01:44:53;;;;;;;20.55;3.05;;;;;;;1.63;100.00;101508.53;6158079;23;20002;-78
2021/04/06 01:47:20;;;;;;;21.17;4.00;;;;;;;1.65;100.00;101505.03;6158690;23;20001;-78
2021/04/06 01:49:46;;;;;;;37.92;4.40;;;;;;;1.80;100.00;101494.66;6156441;23;20392;-79
2021/04/06 01:52:13;;;;;;;22.38;3.20;;;;;;;1.96;100.00;101495.56;6134518;23;20009;-78
2021/04/06 01:54:40;;;;;;;16.45;2.80;;;;;;;2.08;100.00;101502.53;6160725;23;20076;-77
2021/04/06 01:57:51;;;;;;;17.77;3.63;;;;;;;2.20;100.00;101518.16;6160739;23;20026;-80
2021/04/06 01:59:58;;;;;;;20.60;3.45;;;;;;;2.20;100.00;101512.97;6151880;23;20014;-77
2021/04/06 02:02:29;;;;;;;20.75;4.70;;;;;;;2.31;100.00;101505.16;6158453;23;20096;-78
2021/04/06 02:04:56;;;;;;;13.80;2.72;;;;;;;2.30;100.00;101506.00;6133745;23;20530;-79
2021/04/06 02:07:26;;;;;;;23.45;2.85;;;;;;;2.28;100.00;101512.97;6132686;23;20116;-78
2021/04/06 02:09:51;;;;;;;29.55;3.47;;;;;;;2.31;100.00;101510.38;6159340;23;20012;-78
2021/04/06 02:12:22;;;;;;;26.08;3.95;;;;;;;2.38;100.00;101524.28;6131513;23;20010;-79
2021/04/06 02:14:56;;;;;;;16.10;3.08;;;;;;;2.08;100.00;101529.47;6158267;23;20014;-77
2021/04/06 02:17:21;;;;;;;18.52;2.67;;;;;;;1.73;100.00;101529.41;6158606;23;20045;-79
2021/04/06 02:19:46;;;;;;;23.23;3.28;;;;;;;1.81;100.00;101530.31;6158001;23;20375;-79
2021/04/06 02:22:14;;;;;;;19.05;3.28;;;;;;;1.87;100.00;101547.69;6158154;23;20456;-80
2021/04/06 02:24:44;;;;;;;8.93;2.63;;;;;;;1.24;100.00;101557.84;6159019;23;20571;-80
2021/04/06 02:27:15;;;;;;;13.05;2.55;;;;;;;1.06;100.00;101552.56;6167284;23;20066;-79
2021/04/06 02:29:44;;;;;;;8.55;2.28;;;;;;;0.97;100.00;101553.38;6165941;23;20349;-80
2021/04/06 02:32:11;;;;;;;13.43;2.45;;;;;;;0.84;100.00;101548.94;6159508;23;20008;-81
2021/04/06 02:34:38;;;;;;;12.30;1.80;;;;;;;0.70;100.00;101550.56;6160109;23;20005;-81
2021/04/06 02:37:05;;;;;;;15.52;2.03;;;;;;;0.59;100.00;101527.06;6135865;23;20013;-81
2021/04/06 02:39:31;;;;;;;8.43;1.70;;;;;;;0.63;100.00;101526.22;6162239;23;20424;-81
2021/04/06 02:41:56;;;;;;;16.48;1.88;;;;;;;0.62;100.00;101523.63;6160901;23;20001;-81
2021/04/06 02:44:22;;;;;;;10.60;2.17;;;;;;;0.64;100.00;101527.09;6160048;23;20009;-81
2021/04/06 02:46:52;;;;;;;6.78;2.20;;;;;;;0.66;100.00;101526.28;6133137;23;20084;-81
2021/04/06 02:49:18;;;;;;;10.90;2.50;;;;;;;0.64;100.00;101532.31;6159698;23;20009;-80
2021/04/06 02:51:44;;;;;;;18.33;2.30;;;;;;;0.60;100.00;101534.00;6159362;23;20009;-79
2021/04/06 02:54:13;;;;;;;8.75;2.60;;;;;;;0.71;100.00;101536.72;6159428;23;20090;-81
2021/04/06 02:56:38;;;;;;;19.40;2.58;;;;;;;0.77;100.00;101540.22;6159161;23;20001;-80
2021/04/06 02:59:38;;;;;;;10.65;1.70;;;;;;;0.99;100.00;101543.81;6159302;23;20005;-80
2021/04/06 03:02:03;;;;;;;8.77;1.95;;;;;;;1.07;100.00;101543.00;6158987;23;20043;-80
2021/04/06 03:04:29;;;;;;;13.05;2.10;;;;;;;1.00;100.00;101534.28;6132925;23;20006;-80
2021/04/06 03:06:56;;;;;;;12.40;1.55;;;;;;;1.00;100.00;101534.28;6159448;23;20001;-79
2021/04/06 03:09:23;;;;;;;13.55;2.47;;;;;;;1.03;100.00;101552.53;6158876;23;20008;-82
2021/04/06 03:11:51;;;;;;;12.48;2.30;;;;;;;1.00;100.00;101556.00;6132307;23;20052;-81
2021/04/06 03:14:21;;;;;;;17.05;2.10;;;;;;;0.68;100.00;101558.38;6157441;23;20439;-81
2021/04/06 03:16:50;;;;;;;8.98;1.65;;;;;;;0.63;100.00;101553.97;6132232;23;20022;-78
2021/04/06 03:19:16;;;;;;;5.18;1.35;;;;;;;0.50;100.00;101546.09;6158376;23;20013;-80
2021/04/06 03:21:42;;;;;;;9.98;2.15;;;;;;;0.38;100.00;101558.13;6159741;23;20001;-81
2021/04/06 03:24:08;;;;;;;6.47;1.85;;;;;;;0.30;100.00;101549.34;6160116;23;20084;-81
2021/04/06 03:26:34;;;;;;;13.23;2.45;;;;;;;0.32;100.00;101553.72;6133436;23;20009;-77
2021/04/06 03:29:01;;;;;;;14.23;1.77;;;;;;;0.32;100.00;101553.72;6157883;23;20009;-78
2021/04/06 03:31:28;;;;;;;9.13;1.83;;;;;;;0.25;100.00;101554.50;6130902;23;20032;-78
2021/04/06 03:33:56;;;;;;;8.65;1.38;;;;;;;0.20;100.00;101551.00;6157265;23;20009;-78
2021/04/06 03:36:23;;;;;;;5.80;1.45;;;;;;;0.18;100.00;101552.72;6158494;23;20005;-79
2021/04/06 03:38:50;;;;;;;12.25;1.50;;;;;;;0.11;100.00;101538.81;6158656;23;20009;-79
2021/04/06 03:41:19;;;;;;;10.48;1.25;;;;;;;0.15;100.00;101538.00;6132709;23;20010;-79
2021/04/06 03:43:44;;;;;;;4.47;0.75;;;;;;;0.30;100.00;101539.81;6158052;23;20016;-80
2021/04/06 03:46:10;;;;;;;5.35;1.25;;;;;;;0.30;100.00;101539.81;6159818;23;20483;-80
2021/04/06 03:48:37;;;;;;;14.18;2.78;;;;;;;0.36;100.00;101513.91;6161023;23;20016;-80
2021/04/06 03:51:21;;;;;;;16.00;1.88;;;;;;;0.46;100.00;101510.50;6159121;23;20065;-81
2021/04/06 03:53:47;;;;;;;16.13;2.72;;;;;;;0.50;100.00;101501.88;6135005;23;20033;-81
2021/04/06 03:56:13;;;;;;;13.68;2.00;;;;;;;0.53;100.00;101503.63;6159728;23;20447;-80
2021/04/06 03:58:44;;;;;;;13.70;1.95;;;;;;;0.62;100.00;101502.81;6132156;23;20009;-80
2021/04/06 04:01:14;;;;;;;18.90;2.35;;;;;;;0.66;100.00;101512.41;6132961;23;20025;-81
2021/04/06 04:03:40;;;;;;;14.48;2.25;;;;;;;0.76;100.00;101509.00;6158896;23;20025;-81
2021/04/06 04:06:06;;;;;;;19.10;3.65;;;;;;;0.82;100.00;101513.38;6160906;23;20008;-81
2021/04/06 04:08:31;;;;;;;15.85;3.40;;;;;;;0.85;100.00;101510.75;6133388;23;20016;-80
2021/04/06 04:10:56;;;;;;;14.77;2.40;;;;;;;0.88;100.00;101514.25;6158506;23;20006;-80
2021/04/06 04:13:22;;;;;;;12.10;1.98;;;;;;;0.92;100.00;101512.56;6159007;23;20005;-78
2021/04/06 04:15:48;;;;;;;22.63;3.35;;;;;;;0.80;100.00;101515.06;6134095;23;20015;-78
2021/04/06 04:18:14;;;;;;;13.90;2.92;;;;;;;0.86;100.00;101512.53;6140092;23;20395;-79
2021/04/06 04:20:39;;;;;;;12.93;2.38;;;;;;;0.85;100.00;101514.22;6162216;23;20017;-80
2021/04/06 04:23:05;;;;;;;18.63;3.40;;;;;;;0.89;100.00;101513.38;6135796;23;20028;-80
2021/04/06 04:25:30;;;;;;;17.45;2.80;;;;;;;0.83;100.00;101510.75;6161098;23;20013;-79
2021/04/06 04:27:55;;;;;;;29.90;3.88;;;;;;;0.92;100.00;101509.94;6159599;23;20746;-80
2021/04/06 04:33:07;;;;;;;11.38;2.45;;;;;;;1.04;100.00;101512.59;6159073;23;20069;-79
2021/04/06 04:35:33;;;;;;;19.15;5.97;;;;;;;1.00;100.00;101503.94;6159442;23;20048;-79
2021/04/06 04:37:59;;;;;;;25.55;3.03;;;;;;;1.04;100.00;101508.28;6159427;23;20005;-80
2021/04/06 04:40:24;;;;;;;13.98;3.20;;;;;;;1.02;100.00;101507.41;6159049;23;20091;-80
2021/04/06 04:42:51;;;;;;;11.27;1.75;;;;;;;1.06;100.00;101504.81;6158383;23;20006;-80
2021/04/06 04:45:17;;;;;;;14.30;2.75;;;;;;;1.08;100.00;101497.88;6133456;23;20339;-79
2021/04/06 04:47:42;;;;;;;15.45;2.83;;;;;;;1.11;100.00;101495.31;6158866;23;20005;-79
2021/04/06 04:50:08;;;;;;;14.15;1.75;;;;;;;1.09;100.00;101490.06;6159966;23;20005;-80
2021/04/06 04:52:34;;;;;;;9.48;2.60;;;;;;;1.21;100.00;101494.50;6160315;23;20386;-79
2021/04/06 04:54:59;;;;;;;19.85;2.50;;;;;;;1.20;100.00;101498.78;6135364;23;20001;-79
2021/04/06 04:57:24;;;;;;;16.77;2.75;;;;;;;1.22;100.00;101486.66;6160911;23;20427;-79
2021/04/06 04:59:50;;;;;;;11.27;1.38;;;;;;;1.27;100.00;101491.91;6160950;23;20056;-79
2021/04/06 05:02:15;;;;;;;12.95;1.85;;;;;;;1.26;100.00;101498.84;6158109;23;20036;-79
2021/04/06 05:04:40;;;;;;;12.18;1.50;;;;;;;1.24;100.00;101503.16;6158516;23;20009;-78
2021/04/06 05:07:05;;;;;;;9.40;2.60;;;;;;;1.36;100.00;101512.78;6158407;23;20009;-78
2021/04/06 05:09:31;;;;;;;12.45;2.40;;;;;;;1.36;100.00;101519.72;6159665;23;20005;-79
2021/04/06 05:11:56;;;;;;;12.30;1.63;;;;;;;1.15;100.00;101512.66;6132962;23;20492;-79
2021/04/06 05:14:21;;;;;;;7.43;2.15;;;;;;;0.92;100.00;101509.94;6158861;23;20009;-79
2021/04/06 05:16:47;;;;;;;9.88;2.33;;;;;;;0.89;100.00;101513.38;6131822;23;20021;-78
2021/04/06 05:19:12;;;;;;;14.65;2.53;;;;;;;0.85;100.00;101508.16;6159107;23;20032;-78
2021/04/06 05:21:37;;;;;;;16.00;2.05;;;;;;;0.78;100.00;101512.47;6158192;23;20085;-77
2021/04/06 05:24:03;;;;;;;9.27;1.65;;;;;;;0.83;100.00;101502.94;6156212;23;20040;-77
2021/04/06 05:26:28;;;;;;;14.10;1.95;;;;;;;0.84;100.00;101504.69;6157099;23;20005;-78
2021/04/06 05:28:53;;;;;;;10.68;2.33;;;;;;;0.78;100.00;101499.44;6158249;23;20020;-78
2021/04/06 05:31:19;;;;;;;11.40;1.20;;;;;;;0.89;100.00;101504.72;6157057;23;20001;-78
2021/04/06 05:33:44;;;;;;;12.38;2.53;;;;;;;0.91;100.00;101497.81;6158671;23;20008;-79
2021/04/06 05:36:09;;;;;;;12.23;1.60;;;;;;;1.00;100.00;101505.63;6151791;23;20005;-79
2021/04/06 05:38:35;;;;;;;13.27;2.88;;;;;;;1.13;100.00;101512.66;6155061;23;20077;-81
2021/04/06 05:41:00;;;;;;;7.75;2.00;;;;;;;1.14;100.00;101513.53;6157479;23;20435;-79
2021/04/06 05:43:26;;;;;;;11.85;1.85;;;;;;;1.16;100.00;101517.03;6131762;23;20002;-78
2021/04/06 05:45:53;;;;;;;10.05;1.50;;;;;;;1.03;100.00;101519.56;6155990;23;20424;-77
2021/04/06 05:48:18;;;;;;;11.45;1.52;;;;;;;0.88;100.00;101532.47;6154303;23;20044;-78
2021/04/06 05:50:46;;;;;;;7.07;1.40;;;;;;;0.84;100.00;101546.31;6155036;23;20682;-77
2021/04/06 05:53:12;;;;;;;23.95;2.92;;;;;;;0.80;100.00;101548.88;6154453;23;20037;-77
2021/04/06 05:55:37;;;;;;;14.65;2.40;;;;;;;0.74;100.00;101555.78;6153991;23;20423;-77
2021/04/06 05:58:02;;;;;;;11.23;1.70;;;;;;;0.66;100.00;101544.47;6155872;23;20059;-78
2021/04/06 06:00:27;;;;;;;8.07;2.25;;;;;;;0.60;100.00;101543.53;6156136;23;20001;-78
2021/04/06 06:02:54;;;;;;;8.18;0.93;;;;;;;0.51;100.00;101536.56;6127497;23;20101;-81
2021/04/06 06:05:19;;;;;;;13.18;1.38;;;;;;;0.52;100.00;101531.38;6159000;23;20580;-80
2021/04/06 06:07:45;;;;;;;10.20;1.83;;;;;;;0.57;100.00;101535.75;6159584;23;20005;-83
2021/04/06 06:10:28;;;;;;;10.73;1.77;;;;;;;0.62;100.00;101534.91;6160440;23;20001;-82
2021/04/06 06:12:54;;;;;;;9.70;1.90;;;;;;;0.57;100.00;101535.75;6131703;23;20012;-78
2021/04/06 06:15:19;;;;;;;9.43;1.75;;;;;;;0.58;100.00;101529.66;6152185;23;20010;-78
2021/04/06 06:18:01;;;;;;;13.88;3.47;;;;;;;0.61;100.00;101529.69;6156656;23;20021;-80
2021/04/06 06:20:26;;;;;;;10.63;1.52;;;;;;;0.58;100.00;101524.47;6157129;23;20005;-80
2021/04/06 06:22:52;;;;;;;7.72;1.80;;;;;;;0.61;100.00;101527.09;6123200;23;20008;-77
2021/04/06 06:25:18;;;;;;;8.43;2.20;;;;;;;0.65;100.00;101523.63;6124533;23;20040;-77
2021/04/06 06:27:46;;;;;;;21.13;3.45;;;;;;;0.76;100.00;101517.66;6154049;23;20027;-77
2021/04/06 06:33:21;;;;;;;9.68;1.70;;;;;;;0.98;100.00;101508.25;6165535;23;20015;-78
2021/04/06 06:35:49;;;;;;;17.10;2.75;;;;;;;0.99;100.00;101493.50;6156318;23;20005;-80
2021/04/06 06:38:32;;;;;;;18.90;2.35;;;;;;;1.14;100.00;101498.78;6156361;23;20013;-79
2021/04/06 06:41:18;;;;;;;12.50;2.30;;;;;;;1.22;100.00;101499.69;6156995;23;20457;-79
2021/04/06 06:43:50;;;;;;;9.73;2.22;;;;;;;1.37;100.00;101495.41;6158159;23;20006;-78
2021/04/06 06:46:19;;;;;;;10.05;1.88;;;;;;;1.43;100.00;101491.09;6131753;23;20082;-79
2021/04/06 06:48:56;;;;;;;7.80;1.60;;;;;;;1.48;100.00;101496.31;6157138;23;20626;-80
2021/04/06 06:51:33;;;;;;;12.93;2.42;;;;;;;1.70;100.00;101492.03;6156692;23;20005;-79
2021/04/06 06:53:58;;;;;;;14.27;3.17;;;;;;;1.93;100.00;101494.69;6134347;23;20091;-81
2021/04/06 06:56:34;;;;;;;12.43;2.25;;;;;;;1.81;100.00;101498.16;6160888;23;20109;-79
2021/04/06 06:58:59;;;;;;;8.45;2.38;;;;;;;1.79;100.00;101492.03;6133648;23;20010;-79
2021/04/06 07:01:26;;;;;;;9.60;1.33;;;;;;;1.92;100.00;101496.44;6159949;23;20001;-80
2021/04/06 07:04:09;;;;;;;16.20;1.73;;;;;;;2.05;100.00;101492.09;6158470;23;20060;-80
2021/04/06 07:06:37;;;;;;;13.88;2.83;;;;;;;2.14;100.00;101486.88;6159546;23;20013;-81
2021/04/06 07:09:21;;;;;;;6.47;1.27;;;;;;;2.20;100.00;101491.22;6158955;23;20087;-80
2021/04/06 07:11:48;;;;;;;15.35;3.63;;;;;;;2.32;100.00;101492.09;6158018;23;20009;-80
2021/04/06 07:14:14;;;;;;;8.63;2.00;;;;;;;2.33;100.00;101491.22;6156597;23;20020;-79
2021/04/06 07:16:41;;;;;;;17.55;2.03;;;;;;;2.44;100.00;101492.97;6106414;23;20029;-81
2021/04/06 07:19:07;;;;;;;11.90;1.60;;;;;;;2.54;100.00;101492.09;6154592;23;20012;-80
2021/04/06 07:21:33;;;;;;;10.63;1.88;;;;;;;2.71;100.00;101485.13;6130460;23;20005;-80
2021/04/06 07:24:08;;;;;;;12.00;2.40;;;;;;;2.75;100.00;101491.19;6159086;23;20479;-81
2021/04/06 07:26:34;;;;;;;13.15;1.60;;;;;;;2.80;100.00;101482.47;6160555;23;20009;-79
2021/04/06 07:29:01;;;;;;;11.05;1.67;;;;;;;2.89;100.00;101475.50;6160401;23;20059;-80
2021/04/06 07:31:26;;;;;;;8.88;1.45;;;;;;;2.90;100.00;101479.84;6159964;23;20036;-78
2021/04/06 07:33:52;;;;;;;9.20;1.83;;;;;;;3.03;100.00;101481.56;6158111;23;20347;-79
2021/04/06 07:36:21;;;;;;;6.63;1.58;;;;;;;3.24;100.00;101470.16;6153162;23;20005;-79
2021/04/06 07:38:52;;;;;;;14.63;2.33;;;;;;;3.59;100.00;101476.06;6137476;23;20016;-79
2021/04/06 07:41:20;;;;;;;8.23;2.55;;;;;;;3.78;100.00;101466.38;6154195;23;20005;-79
2021/04/06 07:43:46;;;;;;;13.15;2.63;;;;;;;3.68;100.00;101459.47;6157737;23;20658;-79
2021/04/06 07:46:34;;;;;;;11.48;3.78;;;;;;;3.86;100.00;101461.06;6133959;23;20009;-79
2021/04/06 07:49:17;;;;;;;12.75;4.00;;;;;;;3.67;100.00;101462.09;6162164;23;20044;-80
2021/04/06 07:51:46;;;;;;;10.05;2.20;;;;;;;3.77;100.00;101451.56;6156361;23;20010;-80
2021/04/06 07:54:17;;;;;;;11.10;1.85;;;;;;;4.27;100.00;101441.59;6133036;23;20025;-79
2021/04/06 07:56:49;;;;;;;10.43;2.13;;;;;;;4.02;100.00;101449.66;6134409;23;20036;-80
2021/04/06 07:59:20;;;;;;;17.17;2.35;;;;;;;3.00;100.00;101484.16;6156342;23;20006;-80
2021/04/06 08:02:07;;;;;;;4.35;1.50;;;;;;;2.27;100.00;101467.75;6155777;23;20005;-78
2021/04/06 08:04:38;;;;;;;8.15;2.90;;;;;;;2.13;100.00;101479.06;6154941;23;20061;-78
2021/04/06 08:07:18;;;;;;;8.07;2.00;;;;;;;2.13;100.00;101479.06;6157612;23;20014;-80
2021/04/06 08:09:44;;;;;;;11.75;1.90;;;;;;;2.15;100.00;101485.13;6159329;23;20021;-78
2021/04/06 08:12:12;;;;;;;11.63;2.25;;;;;;;2.31;100.00;101482.56;6158309;23;20076;-78
2021/04/06 08:14:53;;;;;;;10.82;2.78;;;;;;;2.17;100.00;101502.53;6159221;23;20008;-80
2021/04/06 08:17:27;;;;;;;6.63;1.42;;;;;;;1.96;100.00;101500.78;6119878;23;20049;-81
2021/04/06 08:20:16;;;;;;;6.63;2.05;;;;;;;2.05;100.00;101507.72;6130671;23;20545;-81
2021/04/06 08:22:49;;;;;;;11.45;2.05;;;;;;;2.11;100.00;101502.53;6105296;23;20017;-80
2021/04/06 08:25:21;;;;;;;9.18;1.65;;;;;;;2.00;100.00;101499.03;6130994;23;20010;-83
2021/04/06 08:27:54;;;;;;;10.02;1.40;;;;;;;1.94;100.00;101505.09;6136959;23;20009;-81
2021/04/06 08:30:19;;;;;;;12.05;1.63;;;;;;;1.72;100.00;101498.13;6108681;23;20009;-79
2021/04/06 08:33:00;;;;;;;11.10;2.90;;;;;;;1.71;100.00;101504.22;6129777;23;20065;-81
2021/04/06 08:35:47;;;;;;;18.00;2.05;;;;;;;2.04;100.00;101504.25;6128897;23;20006;-77
2021/04/06 08:40:51;;;;;;;13.45;2.58;;;;;;;2.16;100.00;101520.78;6128540;23;20020;-80
2021/04/06 08:43:19;;;;;;;12.52;2.33;;;;;;;2.17;100.00;101507.75;6131071;23;20002;-81
2021/04/06 08:46:06;;;;;;;13.85;2.65;;;;;;;2.45;100.00;101523.41;6105308;23;20029;-82
2021/04/06 08:48:48;;;;;;;3.65;1.52;;;;;;;2.79;100.00;101505.97;6131956;23;20032;-82
2021/04/06 08:51:26;;;;;;;11.10;3.28;;;;;;;2.96;100.00;101512.03;6132403;23;20010;-83
2021/04/06 08:54:03;;;;;;;8.15;1.42;;;;;;;3.00;100.00;101499.81;6105785;23;20010;-82
2021/04/06 08:56:30;;;;;;;6.88;1.30;;;;;;;3.21;100.00;101504.97;6104245;23;20017;-83
2021/04/06 08:59:11;;;;;;;9.55;1.75;;;;;;;3.70;100.00;101494.31;6106537;23;20034;-82
2021/04/06 09:01:36;;;;;;;5.00;1.40;;;;;;;3.76;100.00;101489.03;6132141;23;20363;-82
2021/04/06 09:04:13;;;;;;;6.07;1.23;;;;;;;3.75;100.00;101489.03;6105778;23;20033;-82
2021/04/06 09:06:40;;;;;;;11.18;2.08;;;;;;;3.97;100.00;101482.81;6106560;23;20006;-83
2021/04/06 09:09:05;;;;;;;9.23;1.50;;;;;;;4.39;100.00;101467.66;6105603;23;20080;-82
2021/04/06 09:11:31;;;;;;;7.35;1.95;;;;;;;4.90;100.00;101468.88;6107010;23;20108;-83
2021/04/06 09:13:56;;;;;;;7.53;0.98;;;;;;;4.60;100.00;101472.66;6153229;23;20013;-82
2021/04/06 09:16:23;;;;;;;10.90;1.80;;;;;;;4.14;100.00;101465.22;6132698;23;20455;-83
2021/04/06 09:18:57;;;;;;;10.40;1.15;;;;;;;3.49;100.00;101486.59;6126923;23;20009;-80
2021/04/06 09:21:43;;;;;;;9.60;1.65;;;;;;;3.32;100.00;101487.53;6159741;23;20010;-82
2021/04/06 09:24:11;;;;;;;3.03;0.98;;;;;;;2.83;100.00;101524.25;6161727;23;20012;-85
2021/04/06 09:26:38;;;;;;;8.30;2.00;;;;;;;2.13;100.00;101513.84;6161999;23;20343;-82
2021/04/06 09:29:12;;;;;;;8.82;1.38;;;;;;;1.24;100.00;101518.78;6162941;23;20016;-83
2021/04/06 09:31:41;;;;;;;5.05;1.50;;;;;;;1.17;100.00;101492.72;6135296;23;20119;-81
2021/04/06 09:34:10;;;;;;;4.10;1.10;;;;;;;1.19;100.00;101514.41;6160387;23;20009;-82
2021/04/06 09:36:37;;;;;;;9.52;1.90;;;;;;;1.05;100.00;101488.31;6135676;23;20009;-81
2021/04/06 09:39:04;;;;;;;7.57;1.23;;;;;;;1.46;100.00;101500.66;6161055;23;20009;-83
2021/04/06 09:41:31;;;;;;;4.15;1.67;;;;;;;1.49;100.00;101485.03;6134109;23;20013;-82
2021/04/06 09:43:57;;;;;;;5.57;0.95;;;;;;;1.50;100.00;101487.63;6160732;23;20008;-81
2021/04/06 09:46:32;;;;;;;11.30;1.55;;;;;;;1.66;100.00;101485.97;6132737;23;20021;-81
2021/04/06 09:48:58;;;;;;;6.32;1.75;;;;;;;1.79;100.00;101487.69;6159286;23;20001;-81
2021/04/06 09:51:23;;;;;;;8.10;1.35;;;;;;;2.49;100.00;101486.00;6160605;23;20092;-82
2021/04/06 09:53:49;;;;;;;4.53;1.15;;;;;;;2.84;100.00;101481.59;6161042;23;20006;-81
2021/04/06 09:56:14;;;;;;;5.93;1.10;;;;;;;2.92;100.00;101481.59;6135581;23;20005;-82
2021/04/06 09:58:43;;;;;;;8.45;1.30;;;;;;;2.79;100.00;101472.91;6162532;23;20077;-83
2021/04/06 10:01:17;;;;;;;5.32;2.03;;;;;;;3.64;100.00;101484.75;6135732;23;20096;-81
2021/04/06 10:03:45;;;;;;;4.50;1.08;;;;;;;3.45;100.00;101477.88;6160750;23;20006;-80
2021/04/06 10:06:13;;;;;;;13.50;1.60;;;;;;;4.50;100.00;101476.25;6160654;23;20005;-80
2021/04/06 10:08:40;;;;;;;3.60;0.98;;;;;;;3.81;100.00;101476.78;6135695;23;20021;-81
2021/04/06 10:11:06;;;;;;;8.70;1.08;;;;;;;4.33;100.00;101475.56;6163043;23;20078;-82
2021/04/06 10:13:33;;;;;;;5.45;1.42;;;;;;;3.74;100.00;101488.19;6162897;23;20061;-81
2021/04/06 10:16:10;;;;;;;7.53;2.13;;;;;;;3.94;100.00;101474.97;6163291;23;20001;-81
2021/04/06 10:18:38;;;;;;;4.90;1.75;;;;;;;4.06;100.00;101474.00;6137696;23;20020;-81
2021/04/06 10:21:14;;;;;;;7.70;2.00;;;;;;;3.32;100.00;101477.09;6163412;23;20024;-80
2021/04/06 10:23:40;;;;;;;7.70;1.73;;;;;;;2.41;100.00;101477.31;6134565;23;19998;-81
2021/04/06 10:26:17;;;;;;;6.38;1.30;;;;;;;2.11;100.00;101481.69;6159127;23;20132;-80
2021/04/06 10:28:42;;;;;;;14.18;2.13;;;;;;;1.89;100.00;101475.56;6133215;23;20009;-80
2021/04/06 10:31:07;;;;;;;6.65;1.58;;;;;;;1.73;100.00;101463.38;6159300;23;20001;-81
2021/04/06 10:33:38;;;;;;;10.25;1.27;;;;;;;1.76;100.00;101479.91;6158490;23;20013;-80
2021/04/06 10:36:17;;;;;;;2.97;0.80;;;;;;;1.77;100.00;101475.56;6133949;23;20022;-80
2021/04/06 10:38:43;;;;;;;6.88;1.38;;;;;;;1.44;100.00;101473.72;6159951;23;20005;-81
2021/04/06 10:41:15;;;;;;;4.85;1.88;;;;;;;1.02;100.00;101496.13;6130817;23;20731;-80
2021/04/06 10:43:43;;;;;;;5.35;1.42;;;;;;;1.10;100.00;101476.19;6158559;23;20004;-80
2021/04/06 10:46:14;;;;;;;6.32;2.40;;;;;;;0.96;100.00;101481.34;6160464;23;20001;-82
2021/04/06 10:48:42;;;;;;;7.47;1.33;;;;;;;0.87;100.00;101459.59;6161971;23;20020;-81
2021/04/06 10:51:19;;;;;;;11.98;1.77;;;;;;;0.96;100.00;101454.44;6158213;23;20105;-80
2021/04/06 10:53:50;;;;;;;12.88;1.80;;;;;;;1.05;100.00;101454.47;6160083;23;20017;-79
2021/04/06 10:56:21;;;;;;;10.82;1.65;;;;;;;1.28;100.00;101452.84;6158666;23;20002;-78
2021/04/06 10:58:54;;;;;;;7.25;1.67;;;;;;;1.46;100.00;101435.53;6158814;23;20012;-80
2021/04/06 11:01:24;;;;;;;10.60;2.15;;;;;;;1.91;100.00;101439.06;6159309;23;20021;-79
2021/04/06 11:03:52;;;;;;;9.80;1.90;;;;;;;2.59;100.00;101441.63;6154585;23;20006;-77
2021/04/06 11:06:35;;;;;;;4.90;0.82;;;;;;;3.75;100.00;101434.13;6159125;23;20065;-80
2021/04/06 11:09:10;;;;;;;19.88;2.40;;;;;;;3.60;100.00;101435.97;6163267;23;20676;-80
2021/04/06 11:11:36;;;;;;;11.25;1.48;;;;;;;3.50;100.00;101441.25;6136919;23;20006;-80
2021/04/06 11:14:07;;;;;;;9.63;2.38;;;;;;;3.60;100.00;101450.78;6161225;23;20083;-80
2021/04/06 11:16:35;;;;;;;13.45;2.50;;;;;;;4.33;100.00;101428.44;6161445;23;20018;-79
2021/04/06 11:19:16;;;;;;;9.98;1.63;;;;;;;4.01;100.00;101437.41;6135978;23;20048;-80
2021/04/06 11:21:47;;;;;;;11.45;2.00;;;;;;;2.56;100.00;101444.25;6164324;23;20008;-80
2021/04/06 11:24:16;;;;;;;8.32;1.40;;;;;;;2.05;100.00;101453.84;6138223;23;20010;-81
2021/04/06 11:26:42;;;;;;;4.82;1.95;;;;;;;1.35;100.00;101452.84;6164801;23;20012;-80
2021/04/06 11:29:10;;;;;;;4.15;0.73;;;;;;;1.04;100.00;101447.53;6165567;23;20002;-81
2021/04/06 11:31:36;;;;;;;5.88;1.48;;;;;;;1.17;100.00;101449.31;6165599;23;20117;-81
2021/04/06 11:34:06;;;;;;;5.55;1.15;;;;;;;1.81;100.00;101443.41;6165727;23;20005;-80
2021/04/06 11:36:32;;;;;;;6.82;1.70;;;;;;;4.10;100.00;101432.13;6140608;23;20005;-82